Map

Track Data

SID SEASON NUMBER BASIN SUBBASIN NAME ISO_TIME NATURE LAT LON WMO_WIND WMO_PRES WMO_AGENCY TRACK_TYPE DIST2LAND LANDFALL IFLAG USA_AGENCY USA_ATCF_ID USA_LAT USA_LON USA_RECORD USA_STATUS USA_WIND USA_PRES USA_SSHS USA_R34_NE USA_R34_SE USA_R34_SW USA_R34_NW USA_R50_NE USA_R50_SE USA_R50_SW USA_R50_NW USA_R64_NE USA_R64_SE USA_R64_SW USA_R64_NW USA_POCI USA_ROCI USA_RMW USA_EYE TOKYO_LAT TOKYO_LON TOKYO_GRADE TOKYO_WIND TOKYO_PRES TOKYO_R50_DIR TOKYO_R50_LONG TOKYO_R50_SHORT TOKYO_R30_DIR TOKYO_R30_LONG TOKYO_R30_SHORT TOKYO_LAND CMA_LAT CMA_LON CMA_CAT CMA_WIND CMA_PRES HKO_LAT HKO_LON HKO_CAT HKO_WIND HKO_PRES NEWDELHI_LAT NEWDELHI_LON NEWDELHI_GRADE NEWDELHI_WIND NEWDELHI_PRES NEWDELHI_CI NEWDELHI_DP NEWDELHI_POCI REUNION_LAT REUNION_LON REUNION_TYPE REUNION_WIND REUNION_PRES REUNION_TNUM REUNION_CI REUNION_RMW REUNION_R34_NE REUNION_R34_SE REUNION_R34_SW REUNION_R34_NW REUNION_R50_NE REUNION_R50_SE REUNION_R50_SW REUNION_R50_NW REUNION_R64_NE REUNION_R64_SE REUNION_R64_SW REUNION_R64_NW BOM_LAT BOM_LON BOM_TYPE BOM_WIND BOM_PRES BOM_TNUM BOM_CI BOM_RMW BOM_R34_NE BOM_R34_SE BOM_R34_SW BOM_R34_NW BOM_R50_NE BOM_R50_SE BOM_R50_SW BOM_R50_NW BOM_R64_NE BOM_R64_SE BOM_R64_SW BOM_R64_NW BOM_ROCI BOM_POCI BOM_EYE BOM_POS_METHOD BOM_PRES_METHOD NADI_LAT NADI_LON NADI_CAT NADI_WIND NADI_PRES WELLINGTON_LAT WELLINGTON_LON WELLINGTON_WIND WELLINGTON_PRES DS824_LAT DS824_LON DS824_STAGE DS824_WIND DS824_PRES TD9636_LAT TD9636_LON TD9636_STAGE TD9636_WIND TD9636_PRES TD9635_LAT TD9635_LON TD9635_WIND TD9635_PRES TD9635_ROCI NEUMANN_LAT NEUMANN_LON NEUMANN_CLASS NEUMANN_WIND NEUMANN_PRES MLC_LAT MLC_LON MLC_CLASS MLC_WIND MLC_PRES USA_GUST BOM_GUST BOM_GUST_PER REUNION_GUST REUNION_GUST_PER USA_SEAHGT USA_SEARAD_NE USA_SEARAD_SE USA_SEARAD_SW USA_SEARAD_NW STORM_SPEED STORM_DIR
1897342S09138 1898 48 SP EA NOT_NAMED 1897-12-07 12:00:00 NR -9.30000 138.400 main 100 100 __________O___ -1 -9.30000 138.400 7 1 231
1897342S09138 1898 48 SP EA NOT_NAMED 1897-12-07 15:00:00 NR -9.34969 138.344 main 100 100 __________P___ -1 -9.34969 138.344 7 2 234
1897342S09138 1898 48 SP EA NOT_NAMED 1897-12-07 18:00:00 NR -9.40952 138.250 main 112 112 __________P___ -1 -9.40952 138.250 7 3 242
1897342S09138 1898 48 SP EA NOT_NAMED 1897-12-07 21:00:00 NR -9.48962 138.081 main 123 123 __________P___ -1 -9.48962 138.081 7 5 247
1897342S09138 1898 48 SP EA NOT_NAMED 1897-12-08 00:00:00 NR -9.60000 137.800 main 134 134 __________O___ -1 -9.60000 137.800 7 7 249
1897342S09138 1898 48 SP EA NOT_NAMED 1897-12-08 03:00:00 NR -9.74828 137.384 main 147 147 __________P___ -1 -9.74828 137.384 7 10 250
1897342S09138 1898 48 SP EA NOT_NAMED 1897-12-08 06:00:00 NR -9.93318 136.875 main 184 184 __________P___ -1 -9.93318 136.875 7 11 249
1897342S09138 1898 48 SP EA NOT_NAMED 1897-12-08 09:00:00 NR -10.1514 136.328 main 202 190 __________P___ -1 -10.1514 136.328 7 12 246
1897342S09138 1898 48 SP EA NOT_NAMED 1897-12-08 12:00:00 NR -10.4000 135.800 main 190 168 __________O___ -1 -10.4000 135.800 7 11 242
1897342S09138 1898 48 SP EA NOT_NAMED 1897-12-08 15:00:00 NR -10.6505 135.379 main 158 136 __________P___ -1 -10.6505 135.379 7 10 236
1897342S09138 1898 48 SI WA NOT_NAMED 1897-12-08 18:00:00 NR -10.9320 134.984 main 136 99 __________P___ -1 -10.9320 134.984 7 10 232
1897342S09138 1898 48 SI WA NOT_NAMED 1897-12-08 21:00:00 NR -11.2474 134.598 main 99 44 __________P___ -1 -11.2474 134.598 7 10 229
1897342S09138 1898 48 SI WA NOT_NAMED 1897-12-09 00:00:00 NR -11.6000 134.200 main 44 0 __________O___ -1 -11.6000 134.200 7 11 229
1897342S09138 1898 48 SI WA NOT_NAMED 1897-12-09 03:00:00 NR -11.9481 133.788 main 0 0 __________P___ -1 -11.9481 133.788 7 11 228
1897342S09138 1898 48 SI WA NOT_NAMED 1897-12-09 06:00:00 NR -12.3370 133.358 main 0 0 __________P___ -1 -12.3370 133.358 7 12 226
1897342S09138 1898 48 SI WA NOT_NAMED 1897-12-09 09:00:00 NR -12.7824 132.900 main 0 0 __________P___ -1 -12.7824 132.900 7 13 224
1897342S09138 1898 48 SI WA NOT_NAMED 1897-12-09 12:00:00 NR -13.3000 132.400 main 0 0 __________O___ -1 -13.3000 132.400 7 15 222
1897342S09138 1898 48 SI WA NOT_NAMED 1897-12-09 15:00:00 NR -13.8993 131.851 main 0 0 __________P___ -1 -13.8993 131.851 7 17 221
1897342S09138 1898 48 SI WA NOT_NAMED 1897-12-09 18:00:00 NR -14.5641 131.260 main 0 0 __________P___ -1 -14.5641 131.260 7 18 221
1897342S09138 1898 48 SI WA NOT_NAMED 1897-12-09 21:00:00 NR -15.2719 130.638 main 0 0 __________P___ -1 -15.2719 130.638 7 19 220
1897342S09138 1898 48 SI WA NOT_NAMED 1897-12-10 00:00:00 NR -16.0000 130.000 main 0 __________O___ -1 -16.0000 130.000 7 19 220

Digital Typhoon Data and Search

About IBTrACS Database

This database is a web-friendly format of International Best Track Archive for Climate Stewardship (IBTrACS), a global best track data archive curated by NOAA dating back to 1842.

Updated: 2021-12-08